sensor_id;sensor_type;location;lat;lon;timestamp;P1;durP1;ratioP1;P2;durP2;ratioP2
27804;SDS011;15183;51.350;11.102;2024-02-04T00:01:58;22.67;;;14.43;;
27804;SDS011;15183;51.350;11.102;2024-02-04T00:04:25;22.20;;;13.20;;
27804;SDS011;15183;51.350;11.102;2024-02-04T00:06:52;45.63;;;24.77;;
27804;SDS011;15183;51.350;11.102;2024-02-04T00:09:19;57.85;;;31.02;;
27804;SDS011;15183;51.350;11.102;2024-02-04T00:11:45;56.45;;;28.85;;
27804;SDS011;15183;51.350;11.102;2024-02-04T00:14:12;44.25;;;23.42;;
27804;SDS011;15183;51.350;11.102;2024-02-04T00:16:38;60.13;;;31.85;;
27804;SDS011;15183;51.350;11.102;2024-02-04T00:19:05;61.13;;;31.75;;
27804;SDS011;15183;51.350;11.102;2024-02-04T00:21:31;45.97;;;26.08;;
27804;SDS011;15183;51.350;11.102;2024-02-04T00:23:57;34.25;;;20.88;;
27804;SDS011;15183;51.350;11.102;2024-02-04T00:26:24;25.17;;;17.02;;
27804;SDS011;15183;51.350;11.102;2024-02-04T00:28:50;23.55;;;16.00;;
27804;SDS011;15183;51.350;11.102;2024-02-04T00:31:17;15.63;;;11.27;;
27804;SDS011;15183;51.350;11.102;2024-02-04T00:33:43;12.45;;;8.85;;
27804;SDS011;15183;51.350;11.102;2024-02-04T00:36:09;14.10;;;9.07;;
27804;SDS011;15183;51.350;11.102;2024-02-04T00:38:36;12.50;;;8.25;;
27804;SDS011;15183;51.350;11.102;2024-02-04T00:41:02;10.63;;;7.05;;
27804;SDS011;15183;51.350;11.102;2024-02-04T00:43:29;9.35;;;7.00;;
27804;SDS011;15183;51.350;11.102;2024-02-04T00:45:55;11.15;;;6.15;;
27804;SDS011;15183;51.350;11.102;2024-02-04T00:48:22;10.93;;;5.57;;
27804;SDS011;15183;51.350;11.102;2024-02-04T00:50:48;7.45;;;4.97;;
27804;SDS011;15183;51.350;11.102;2024-02-04T00:53:15;6.53;;;4.78;;
27804;SDS011;15183;51.350;11.102;2024-02-04T00:55:42;7.20;;;4.85;;
27804;SDS011;15183;51.350;11.102;2024-02-04T00:58:09;6.88;;;4.55;;
27804;SDS011;15183;51.350;11.102;2024-02-04T01:00:35;6.20;;;4.28;;
27804;SDS011;15183;51.350;11.102;2024-02-04T01:03:01;5.20;;;4.30;;
27804;SDS011;15183;51.350;11.102;2024-02-04T01:05:28;7.22;;;4.38;;
27804;SDS011;15183;51.350;11.102;2024-02-04T01:07:56;4.95;;;4.05;;
27804;SDS011;15183;51.350;11.102;2024-02-04T01:10:22;5.63;;;4.20;;
27804;SDS011;15183;51.350;11.102;2024-02-04T01:12:48;4.97;;;3.83;;
27804;SDS011;15183;51.350;11.102;2024-02-04T01:15:15;6.47;;;4.25;;
27804;SDS011;15183;51.350;11.102;2024-02-04T01:17:41;7.05;;;3.90;;
27804;SDS011;15183;51.350;11.102;2024-02-04T01:20:09;4.72;;;3.97;;
27804;SDS011;15183;51.350;11.102;2024-02-04T01:22:36;4.47;;;4.07;;
27804;SDS011;15183;51.350;11.102;2024-02-04T01:25:02;5.43;;;4.35;;
27804;SDS011;15183;51.350;11.102;2024-02-04T01:27:29;7.32;;;5.10;;
27804;SDS011;15183;51.350;11.102;2024-02-04T01:29:55;5.22;;;3.95;;
27804;SDS011;15183;51.350;11.102;2024-02-04T01:32:22;5.50;;;4.18;;
27804;SDS011;15183;51.350;11.102;2024-02-04T01:34:48;5.18;;;3.83;;
27804;SDS011;15183;51.350;11.102;2024-02-04T01:37:15;5.93;;;4.15;;
27804;SDS011;15183;51.350;11.102;2024-02-04T01:39:41;5.38;;;4.18;;
27804;SDS011;15183;51.350;11.102;2024-02-04T01:42:07;8.05;;;4.25;;
27804;SDS011;15183;51.350;11.102;2024-02-04T01:44:34;6.38;;;4.25;;
27804;SDS011;15183;51.350;11.102;2024-02-04T01:47:00;4.35;;;3.65;;
27804;SDS011;15183;51.350;11.102;2024-02-04T01:49:27;3.90;;;3.30;;
27804;SDS011;15183;51.350;11.102;2024-02-04T01:51:55;3.80;;;3.40;;
27804;SDS011;15183;51.350;11.102;2024-02-04T01:54:22;3.50;;;3.15;;
27804;SDS011;15183;51.350;11.102;2024-02-04T01:56:50;4.35;;;2.83;;
27804;SDS011;15183;51.350;11.102;2024-02-04T01:59:19;3.03;;;2.75;;
27804;SDS011;15183;51.350;11.102;2024-02-04T02:01:48;5.55;;;3.38;;
27804;SDS011;15183;51.350;11.102;2024-02-04T02:04:15;3.50;;;2.42;;
27804;SDS011;15183;51.350;11.102;2024-02-04T02:06:41;3.67;;;3.10;;
27804;SDS011;15183;51.350;11.102;2024-02-04T02:09:08;3.47;;;2.67;;
27804;SDS011;15183;51.350;11.102;2024-02-04T02:11:41;3.53;;;2.60;;
27804;SDS011;15183;51.350;11.102;2024-02-04T02:14:16;1.85;;;1.75;;
27804;SDS011;15183;51.350;11.102;2024-02-04T02:16:49;1.70;;;1.60;;
27804;SDS011;15183;51.350;11.102;2024-02-04T02:19:31;2.47;;;1.92;;
27804;SDS011;15183;51.350;11.102;2024-02-04T02:25:05;2.13;;;1.50;;
27804;SDS011;15183;51.350;11.102;2024-02-04T02:27:34;1.90;;;1.80;;
27804;SDS011;15183;51.350;11.102;2024-02-04T02:30:00;2.20;;;1.58;;
27804;SDS011;15183;51.350;11.102;2024-02-04T02:32:28;2.35;;;1.50;;
27804;SDS011;15183;51.350;11.102;2024-02-04T02:34:56;1.70;;;1.40;;
27804;SDS011;15183;51.350;11.102;2024-02-04T02:37:29;4.70;;;1.90;;
27804;SDS011;15183;51.350;11.102;2024-02-04T02:42:52;2.22;;;1.70;;
27804;SDS011;15183;51.350;11.102;2024-02-04T02:45:21;2.88;;;1.90;;
27804;SDS011;15183;51.350;11.102;2024-02-04T02:47:50;1.83;;;1.60;;
27804;SDS011;15183;51.350;11.102;2024-02-04T02:50:19;1.60;;;1.50;;
27804;SDS011;15183;51.350;11.102;2024-02-04T02:52:46;2.60;;;1.67;;
27804;SDS011;15183;51.350;11.102;2024-02-04T02:55:13;2.05;;;1.85;;
27804;SDS011;15183;51.350;11.102;2024-02-04T02:57:39;1.85;;;1.75;;
27804;SDS011;15183;51.350;11.102;2024-02-04T03:00:05;2.88;;;2.33;;
27804;SDS011;15183;51.350;11.102;2024-02-04T03:02:33;3.45;;;2.03;;
27804;SDS011;15183;51.350;11.102;2024-02-04T03:04:59;4.32;;;2.42;;
27804;SDS011;15183;51.350;11.102;2024-02-04T03:07:26;5.45;;;2.78;;
27804;SDS011;15183;51.350;11.102;2024-02-04T03:09:52;2.35;;;2.15;;
27804;SDS011;15183;51.350;11.102;2024-02-04T03:12:20;3.33;;;2.70;;
27804;SDS011;15183;51.350;11.102;2024-02-04T03:14:46;3.28;;;2.92;;
27804;SDS011;15183;51.350;11.102;2024-02-04T03:17:13;4.00;;;2.83;;
27804;SDS011;15183;51.350;11.102;2024-02-04T03:19:39;3.00;;;2.70;;
27804;SDS011;15183;51.350;11.102;2024-02-04T03:22:05;6.55;;;2.90;;
27804;SDS011;15183;51.350;11.102;2024-02-04T03:24:32;2.55;;;2.35;;
27804;SDS011;15183;51.350;11.102;2024-02-04T03:26:58;4.05;;;2.55;;
27804;SDS011;15183;51.350;11.102;2024-02-04T03:29:25;2.90;;;2.60;;
27804;SDS011;15183;51.350;11.102;2024-02-04T03:31:51;2.17;;;1.98;;
27804;SDS011;15183;51.350;11.102;2024-02-04T03:34:17;4.40;;;2.30;;
27804;SDS011;15183;51.350;11.102;2024-02-04T03:36:44;3.38;;;2.33;;
27804;SDS011;15183;51.350;11.102;2024-02-04T03:39:10;2.30;;;2.10;;
27804;SDS011;15183;51.350;11.102;2024-02-04T03:41:36;2.17;;;1.98;;
27804;SDS011;15183;51.350;11.102;2024-02-04T03:44:03;2.08;;;1.90;;
27804;SDS011;15183;51.350;11.102;2024-02-04T03:46:29;2.10;;;1.83;;
27804;SDS011;15183;51.350;11.102;2024-02-04T03:48:56;1.73;;;1.63;;
27804;SDS011;15183;51.350;11.102;2024-02-04T03:51:23;1.80;;;1.67;;
27804;SDS011;15183;51.350;11.102;2024-02-04T03:53:50;2.35;;;1.70;;
27804;SDS011;15183;51.350;11.102;2024-02-04T03:56:17;2.42;;;1.98;;
27804;SDS011;15183;51.350;11.102;2024-02-04T03:58:44;2.72;;;2.17;;
27804;SDS011;15183;51.350;11.102;2024-02-04T04:01:10;2.47;;;2.20;;
27804;SDS011;15183;51.350;11.102;2024-02-04T04:03:41;4.50;;;2.95;;
27804;SDS011;15183;51.350;11.102;2024-02-04T04:06:08;3.65;;;3.13;;
27804;SDS011;15183;51.350;11.102;2024-02-04T04:08:36;2.50;;;2.30;;
27804;SDS011;15183;51.350;11.102;2024-02-04T04:11:03;4.88;;;3.08;;
27804;SDS011;15183;51.350;11.102;2024-02-04T04:13:30;4.32;;;2.55;;
27804;SDS011;15183;51.350;11.102;2024-02-04T04:16:00;3.10;;;2.80;;
27804;SDS011;15183;51.350;11.102;2024-02-04T04:18:27;3.03;;;2.60;;
27804;SDS011;15183;51.350;11.102;2024-02-04T04:20:54;3.42;;;2.97;;
27804;SDS011;15183;51.350;11.102;2024-02-04T04:23:20;5.28;;;3.22;;
27804;SDS011;15183;51.350;11.102;2024-02-04T04:25:46;3.72;;;3.10;;
27804;SDS011;15183;51.350;11.102;2024-02-04T04:28:13;3.45;;;2.33;;
27804;SDS011;15183;51.350;11.102;2024-02-04T04:30:39;3.05;;;2.75;;
27804;SDS011;15183;51.350;11.102;2024-02-04T04:33:06;3.45;;;3.03;;
27804;SDS011;15183;51.350;11.102;2024-02-04T04:35:33;3.47;;;2.65;;
27804;SDS011;15183;51.350;11.102;2024-02-04T04:38:00;3.28;;;2.90;;
27804;SDS011;15183;51.350;11.102;2024-02-04T04:40:27;2.63;;;2.42;;
27804;SDS011;15183;51.350;11.102;2024-02-04T04:42:53;3.05;;;2.75;;
27804;SDS011;15183;51.350;11.102;2024-02-04T04:45:19;7.38;;;3.20;;
27804;SDS011;15183;51.350;11.102;2024-02-04T04:47:47;2.95;;;2.60;;
27804;SDS011;15183;51.350;11.102;2024-02-04T04:50:13;2.58;;;2.38;;
27804;SDS011;15183;51.350;11.102;2024-02-04T04:52:40;2.65;;;2.33;;
27804;SDS011;15183;51.350;11.102;2024-02-04T04:55:07;4.22;;;2.63;;
27804;SDS011;15183;51.350;11.102;2024-02-04T04:57:34;2.50;;;2.25;;
27804;SDS011;15183;51.350;11.102;2024-02-04T05:00:00;2.40;;;2.20;;
27804;SDS011;15183;51.350;11.102;2024-02-04T05:02:32;2.22;;;2.03;;
27804;SDS011;15183;51.350;11.102;2024-02-04T05:04:59;1.98;;;1.88;;
27804;SDS011;15183;51.350;11.102;2024-02-04T05:07:25;2.08;;;1.90;;
27804;SDS011;15183;51.350;11.102;2024-02-04T05:09:52;1.75;;;1.65;;
27804;SDS011;15183;51.350;11.102;2024-02-04T05:12:18;3.08;;;2.15;;
27804;SDS011;15183;51.350;11.102;2024-02-04T05:14:45;1.67;;;1.58;;
27804;SDS011;15183;51.350;11.102;2024-02-04T05:17:11;1.70;;;1.60;;
27804;SDS011;15183;51.350;11.102;2024-02-04T05:19:37;1.65;;;1.55;;
27804;SDS011;15183;51.350;11.102;2024-02-04T05:22:06;1.55;;;1.45;;
27804;SDS011;15183;51.350;11.102;2024-02-04T05:24:33;1.70;;;1.60;;
27804;SDS011;15183;51.350;11.102;2024-02-04T05:26:59;1.55;;;1.45;;
27804;SDS011;15183;51.350;11.102;2024-02-04T05:29:26;1.30;;;1.20;;
27804;SDS011;15183;51.350;11.102;2024-02-04T05:31:53;1.58;;;1.40;;
27804;SDS011;15183;51.350;11.102;2024-02-04T05:34:19;1.30;;;1.20;;
27804;SDS011;15183;51.350;11.102;2024-02-04T05:36:46;1.38;;;1.27;;
27804;SDS011;15183;51.350;11.102;2024-02-04T05:39:12;1.30;;;1.20;;
27804;SDS011;15183;51.350;11.102;2024-02-04T05:41:41;1.00;;;1.00;;
27804;SDS011;15183;51.350;11.102;2024-02-04T05:44:08;1.60;;;1.00;;
27804;SDS011;15183;51.350;11.102;2024-02-04T05:46:35;1.05;;;0.82;;
27804;SDS011;15183;51.350;11.102;2024-02-04T05:49:02;1.05;;;0.90;;
27804;SDS011;15183;51.350;11.102;2024-02-04T05:51:28;1.20;;;1.10;;
27804;SDS011;15183;51.350;11.102;2024-02-04T05:54:03;0.77;;;0.77;;
27804;SDS011;15183;51.350;11.102;2024-02-04T05:56:29;1.00;;;0.80;;
27804;SDS011;15183;51.350;11.102;2024-02-04T05:58:56;0.90;;;0.90;;
27804;SDS011;15183;51.350;11.102;2024-02-04T06:01:22;0.70;;;0.70;;
27804;SDS011;15183;51.350;11.102;2024-02-04T06:03:49;0.57;;;0.57;;
27804;SDS011;15183;51.350;11.102;2024-02-04T06:06:15;0.70;;;0.70;;
27804;SDS011;15183;51.350;11.102;2024-02-04T06:08:45;0.80;;;0.80;;
27804;SDS011;15183;51.350;11.102;2024-02-04T06:11:13;1.35;;;0.45;;
27804;SDS011;15183;51.350;11.102;2024-02-04T06:13:41;0.85;;;0.50;;
27804;SDS011;15183;51.350;11.102;2024-02-04T06:16:09;0.50;;;0.50;;
27804;SDS011;15183;51.350;11.102;2024-02-04T06:18:37;0.95;;;0.60;;
27804;SDS011;15183;51.350;11.102;2024-02-04T06:21:05;1.25;;;0.63;;
27804;SDS011;15183;51.350;11.102;2024-02-04T06:23:31;0.50;;;0.50;;
27804;SDS011;15183;51.350;11.102;2024-02-04T06:25:58;0.68;;;0.60;;
27804;SDS011;15183;51.350;11.102;2024-02-04T06:28:25;1.25;;;0.80;;
27804;SDS011;15183;51.350;11.102;2024-02-04T06:30:51;0.60;;;0.60;;
27804;SDS011;15183;51.350;11.102;2024-02-04T06:33:18;1.05;;;0.60;;
27804;SDS011;15183;51.350;11.102;2024-02-04T06:35:45;0.70;;;0.70;;
27804;SDS011;15183;51.350;11.102;2024-02-04T06:38:11;1.15;;;0.60;;
27804;SDS011;15183;51.350;11.102;2024-02-04T06:40:38;0.60;;;0.60;;
27804;SDS011;15183;51.350;11.102;2024-02-04T06:43:04;0.70;;;0.47;;
27804;SDS011;15183;51.350;11.102;2024-02-04T06:45:31;0.70;;;0.70;;
27804;SDS011;15183;51.350;11.102;2024-02-04T06:47:57;2.47;;;0.70;;
27804;SDS011;15183;51.350;11.102;2024-02-04T06:50:23;1.15;;;0.73;;
27804;SDS011;15183;51.350;11.102;2024-02-04T06:52:50;0.50;;;0.50;;
27804;SDS011;15183;51.350;11.102;2024-02-04T06:55:16;1.48;;;0.50;;
27804;SDS011;15183;51.350;11.102;2024-02-04T06:57:43;0.50;;;0.50;;
27804;SDS011;15183;51.350;11.102;2024-02-04T07:00:09;0.60;;;0.52;;
27804;SDS011;15183;51.350;11.102;2024-02-04T07:02:37;0.32;;;0.32;;
27804;SDS011;15183;51.350;11.102;2024-02-04T07:05:04;0.75;;;0.60;;
27804;SDS011;15183;51.350;11.102;2024-02-04T07:07:30;0.65;;;0.50;;
27804;SDS011;15183;51.350;11.102;2024-02-04T07:09:57;0.70;;;0.60;;
27804;SDS011;15183;51.350;11.102;2024-02-04T07:12:25;0.50;;;0.50;;
27804;SDS011;15183;51.350;11.102;2024-02-04T07:14:51;0.40;;;0.40;;
27804;SDS011;15183;51.350;11.102;2024-02-04T07:17:17;0.50;;;0.50;;
27804;SDS011;15183;51.350;11.102;2024-02-04T07:19:44;0.40;;;0.40;;
27804;SDS011;15183;51.350;11.102;2024-02-04T07:22:10;0.77;;;0.77;;
27804;SDS011;15183;51.350;11.102;2024-02-04T07:24:37;0.30;;;0.30;;
27804;SDS011;15183;51.350;11.102;2024-02-04T07:27:03;0.45;;;0.45;;
27804;SDS011;15183;51.350;11.102;2024-02-04T07:29:29;0.30;;;0.30;;
27804;SDS011;15183;51.350;11.102;2024-02-04T07:31:56;0.40;;;0.40;;
27804;SDS011;15183;51.350;11.102;2024-02-04T07:34:24;0.30;;;0.30;;
27804;SDS011;15183;51.350;11.102;2024-02-04T07:36:50;0.40;;;0.40;;
27804;SDS011;15183;51.350;11.102;2024-02-04T07:39:18;0.43;;;0.40;;
27804;SDS011;15183;51.350;11.102;2024-02-04T07:41:44;1.35;;;0.45;;
27804;SDS011;15183;51.350;11.102;2024-02-04T07:44:11;0.50;;;0.50;;
27804;SDS011;15183;51.350;11.102;2024-02-04T07:46:37;0.40;;;0.40;;
27804;SDS011;15183;51.350;11.102;2024-02-04T07:49:03;0.80;;;0.57;;
27804;SDS011;15183;51.350;11.102;2024-02-04T07:51:31;0.40;;;0.40;;
27804;SDS011;15183;51.350;11.102;2024-02-04T07:53:58;0.43;;;0.43;;
27804;SDS011;15183;51.350;11.102;2024-02-04T07:56:25;0.40;;;0.40;;
27804;SDS011;15183;51.350;11.102;2024-02-04T07:58:51;0.90;;;0.90;;
27804;SDS011;15183;51.350;11.102;2024-02-04T08:01:18;0.47;;;0.47;;
27804;SDS011;15183;51.350;11.102;2024-02-04T08:03:45;0.60;;;0.60;;
27804;SDS011;15183;51.350;11.102;2024-02-04T08:06:12;0.60;;;0.60;;
27804;SDS011;15183;51.350;11.102;2024-02-04T08:08:39;3.30;;;1.30;;
27804;SDS011;15183;51.350;11.102;2024-02-04T08:11:06;0.80;;;0.80;;
27804;SDS011;15183;51.350;11.102;2024-02-04T08:13:33;1.13;;;1.02;;
27804;SDS011;15183;51.350;11.102;2024-02-04T08:15:59;1.30;;;1.20;;
27804;SDS011;15183;51.350;11.102;2024-02-04T08:18:25;1.65;;;1.55;;
27804;SDS011;15183;51.350;11.102;2024-02-04T08:20:52;1.85;;;1.75;;
27804;SDS011;15183;51.350;11.102;2024-02-04T08:23:18;1.95;;;1.75;;
27804;SDS011;15183;51.350;11.102;2024-02-04T08:25:45;1.90;;;1.80;;
27804;SDS011;15183;51.350;11.102;2024-02-04T08:28:12;1.70;;;1.60;;
27804;SDS011;15183;51.350;11.102;2024-02-04T08:30:38;1.58;;;1.48;;
27804;SDS011;15183;51.350;11.102;2024-02-04T08:33:05;2.20;;;1.52;;
27804;SDS011;15183;51.350;11.102;2024-02-04T08:35:31;2.20;;;2.00;;
27804;SDS011;15183;51.350;11.102;2024-02-04T08:37:58;2.38;;;1.80;;
27804;SDS011;15183;51.350;11.102;2024-02-04T08:40:24;3.72;;;2.10;;
27804;SDS011;15183;51.350;11.102;2024-02-04T08:42:50;2.45;;;2.03;;
27804;SDS011;15183;51.350;11.102;2024-02-04T08:45:17;2.13;;;1.92;;
27804;SDS011;15183;51.350;11.102;2024-02-04T08:47:43;2.35;;;2.10;;
27804;SDS011;15183;51.350;11.102;2024-02-04T08:50:10;2.80;;;1.90;;
27804;SDS011;15183;51.350;11.102;2024-02-04T08:52:37;1.75;;;1.65;;
27804;SDS011;15183;51.350;11.102;2024-02-04T08:55:04;1.60;;;1.50;;
27804;SDS011;15183;51.350;11.102;2024-02-04T08:57:31;3.58;;;1.90;;
27804;SDS011;15183;51.350;11.102;2024-02-04T08:59:59;1.65;;;1.55;;
27804;SDS011;15183;51.350;11.102;2024-02-04T09:02:25;1.67;;;1.58;;
27804;SDS011;15183;51.350;11.102;2024-02-04T09:04:51;1.70;;;1.60;;
27804;SDS011;15183;51.350;11.102;2024-02-04T09:07:19;1.50;;;1.40;;
27804;SDS011;15183;51.350;11.102;2024-02-04T09:09:46;1.77;;;1.35;;
27804;SDS011;15183;51.350;11.102;2024-02-04T09:12:12;1.40;;;1.30;;
27804;SDS011;15183;51.350;11.102;2024-02-04T09:14:38;1.52;;;1.42;;
27804;SDS011;15183;51.350;11.102;2024-02-04T09:17:05;2.58;;;1.60;;
27804;SDS011;15183;51.350;11.102;2024-02-04T09:19:32;2.08;;;1.77;;
27804;SDS011;15183;51.350;11.102;2024-02-04T09:21:58;1.55;;;1.40;;
27804;SDS011;15183;51.350;11.102;2024-02-04T09:24:27;3.00;;;1.90;;
27804;SDS011;15183;51.350;11.102;2024-02-04T09:26:55;3.72;;;1.77;;
27804;SDS011;15183;51.350;11.102;2024-02-04T09:29:21;1.65;;;1.55;;
27804;SDS011;15183;51.350;11.102;2024-02-04T09:31:49;1.65;;;1.55;;
27804;SDS011;15183;51.350;11.102;2024-02-04T09:34:17;1.30;;;1.20;;
27804;SDS011;15183;51.350;11.102;2024-02-04T09:36:44;1.98;;;1.38;;
27804;SDS011;15183;51.350;11.102;2024-02-04T09:39:10;1.85;;;1.48;;
27804;SDS011;15183;51.350;11.102;2024-02-04T09:41:37;2.20;;;0.88;;
27804;SDS011;15183;51.350;11.102;2024-02-04T09:44:03;0.88;;;0.88;;
27804;SDS011;15183;51.350;11.102;2024-02-04T09:46:32;1.13;;;0.80;;
27804;SDS011;15183;51.350;11.102;2024-02-04T09:48:58;1.00;;;0.90;;
27804;SDS011;15183;51.350;11.102;2024-02-04T09:51:26;1.15;;;1.15;;
27804;SDS011;15183;51.350;11.102;2024-02-04T09:53:54;1.48;;;1.00;;
27804;SDS011;15183;51.350;11.102;2024-02-04T09:56:28;0.90;;;0.90;;
27804;SDS011;15183;51.350;11.102;2024-02-04T09:58:57;1.00;;;1.00;;
27804;SDS011;15183;51.350;11.102;2024-02-04T10:01:24;1.45;;;1.35;;
27804;SDS011;15183;51.350;11.102;2024-02-04T10:03:52;1.25;;;1.02;;
27804;SDS011;15183;51.350;11.102;2024-02-04T10:06:18;1.65;;;1.55;;
27804;SDS011;15183;51.350;11.102;2024-02-04T10:08:45;1.30;;;1.20;;
27804;SDS011;15183;51.350;11.102;2024-02-04T10:11:11;1.48;;;1.38;;
27804;SDS011;15183;51.350;11.102;2024-02-04T10:13:48;1.60;;;1.50;;
27804;SDS011;15183;51.350;11.102;2024-02-04T10:16:16;1.33;;;1.17;;
27804;SDS011;15183;51.350;11.102;2024-02-04T10:18:46;1.52;;;1.42;;
27804;SDS011;15183;51.350;11.102;2024-02-04T10:21:17;2.83;;;2.63;;
27804;SDS011;15183;51.350;11.102;2024-02-04T10:23:45;2.97;;;2.78;;
27804;SDS011;15183;51.350;11.102;2024-02-04T10:26:16;2.42;;;2.20;;
27804;SDS011;15183;51.350;11.102;2024-02-04T10:28:45;3.05;;;1.80;;
27804;SDS011;15183;51.350;11.102;2024-02-04T10:31:13;1.80;;;1.70;;
27804;SDS011;15183;51.350;11.102;2024-02-04T10:33:40;2.00;;;1.80;;
27804;SDS011;15183;51.350;11.102;2024-02-04T10:36:06;2.95;;;2.00;;
27804;SDS011;15183;51.350;11.102;2024-02-04T10:38:33;2.17;;;1.98;;
27804;SDS011;15183;51.350;11.102;2024-02-04T10:41:00;2.00;;;1.90;;
27804;SDS011;15183;51.350;11.102;2024-02-04T10:43:33;1.88;;;1.77;;
27804;SDS011;15183;51.350;11.102;2024-02-04T10:46:01;2.50;;;1.92;;
27804;SDS011;15183;51.350;11.102;2024-02-04T10:48:42;1.60;;;1.48;;
27804;SDS011;15183;51.350;11.102;2024-02-04T10:51:13;2.47;;;1.95;;
27804;SDS011;15183;51.350;11.102;2024-02-04T10:53:41;1.80;;;1.70;;
27804;SDS011;15183;51.350;11.102;2024-02-04T10:56:53;1.58;;;1.48;;
27804;SDS011;15183;51.350;11.102;2024-02-04T10:59:14;2.03;;;1.80;;
27804;SDS011;15183;51.350;11.102;2024-02-04T11:01:47;2.53;;;2.33;;
27804;SDS011;15183;51.350;11.102;2024-02-04T11:04:16;1.67;;;1.50;;
27804;SDS011;15183;51.350;11.102;2024-02-04T11:06:43;4.25;;;2.13;;
27804;SDS011;15183;51.350;11.102;2024-02-04T11:09:14;1.98;;;1.80;;
27804;SDS011;15183;51.350;11.102;2024-02-04T11:11:42;1.98;;;1.80;;
27804;SDS011;15183;51.350;11.102;2024-02-04T11:14:13;2.53;;;1.83;;
27804;SDS011;15183;51.350;11.102;2024-02-04T11:26:03;9.88;;;6.53;;
27804;SDS011;15183;51.350;11.102;2024-02-04T11:28:31;5.22;;;4.40;;
27804;SDS011;15183;51.350;11.102;2024-02-04T11:30:57;4.47;;;3.65;;
27804;SDS011;15183;51.350;11.102;2024-02-04T11:33:24;8.00;;;4.78;;
27804;SDS011;15183;51.350;11.102;2024-02-04T11:36:05;4.10;;;3.25;;
27804;SDS011;15183;51.350;11.102;2024-02-04T11:38:35;2.47;;;2.28;;
27804;SDS011;15183;51.350;11.102;2024-02-04T11:41:03;3.45;;;3.15;;
27804;SDS011;15183;51.350;11.102;2024-02-04T11:43:32;2.88;;;2.63;;
27804;SDS011;15183;51.350;11.102;2024-02-04T11:46:03;2.42;;;2.22;;
27804;SDS011;15183;51.350;11.102;2024-02-04T11:48:31;3.70;;;2.38;;
27804;SDS011;15183;51.350;11.102;2024-02-04T11:51:00;3.50;;;2.22;;
27804;SDS011;15183;51.350;11.102;2024-02-04T11:53:26;3.28;;;2.30;;
27804;SDS011;15183;51.350;11.102;2024-02-04T11:55:58;3.22;;;2.22;;
27804;SDS011;15183;51.350;11.102;2024-02-04T11:58:27;3.13;;;2.30;;
27804;SDS011;15183;51.350;11.102;2024-02-04T12:00:55;2.30;;;2.00;;
27804;SDS011;15183;51.350;11.102;2024-02-04T12:03:30;2.30;;;2.10;;
27804;SDS011;15183;51.350;11.102;2024-02-04T12:05:58;2.78;;;1.95;;
27804;SDS011;15183;51.350;11.102;2024-02-04T12:08:26;2.20;;;2.00;;
27804;SDS011;15183;51.350;11.102;2024-02-04T12:10:54;2.40;;;2.00;;
27804;SDS011;15183;51.350;11.102;2024-02-04T12:13:22;2.05;;;1.85;;
27804;SDS011;15183;51.350;11.102;2024-02-04T12:15:49;2.78;;;1.95;;
27804;SDS011;15183;51.350;11.102;2024-02-04T12:18:16;3.22;;;2.10;;
27804;SDS011;15183;51.350;11.102;2024-02-04T12:20:46;2.10;;;1.95;;
27804;SDS011;15183;51.350;11.102;2024-02-04T12:23:16;3.45;;;2.08;;
27804;SDS011;15183;51.350;11.102;2024-02-04T12:25:46;2.38;;;2.13;;
27804;SDS011;15183;51.350;11.102;2024-02-04T12:28:13;2.58;;;1.60;;
27804;SDS011;15183;51.350;11.102;2024-02-04T12:30:40;2.88;;;1.55;;
27804;SDS011;15183;51.350;11.102;2024-02-04T12:33:18;5.25;;;2.20;;
27804;SDS011;15183;51.350;11.102;2024-02-04T12:35:48;2.97;;;2.17;;
27804;SDS011;15183;51.350;11.102;2024-02-04T12:38:18;2.55;;;1.80;;
27804;SDS011;15183;51.350;11.102;2024-02-04T12:40:44;2.72;;;1.80;;
27804;SDS011;15183;51.350;11.102;2024-02-04T12:43:11;3.05;;;1.98;;
27804;SDS011;15183;51.350;11.102;2024-02-04T12:45:37;3.38;;;1.90;;
27804;SDS011;15183;51.350;11.102;2024-02-04T12:48:04;3.45;;;1.98;;
27804;SDS011;15183;51.350;11.102;2024-02-04T12:50:31;3.90;;;1.75;;
27804;SDS011;15183;51.350;11.102;2024-02-04T12:53:04;3.20;;;1.77;;
27804;SDS011;15183;51.350;11.102;2024-02-04T12:55:33;2.25;;;1.70;;
27804;SDS011;15183;51.350;11.102;2024-02-04T12:58:06;1.73;;;1.40;;
27804;SDS011;15183;51.350;11.102;2024-02-04T13:00:37;1.92;;;1.40;;
27804;SDS011;15183;51.350;11.102;2024-02-04T13:03:05;1.20;;;1.10;;
27804;SDS011;15183;51.350;11.102;2024-02-04T13:05:36;1.38;;;1.15;;
27804;SDS011;15183;51.350;11.102;2024-02-04T13:08:03;1.40;;;1.30;;
27804;SDS011;15183;51.350;11.102;2024-02-04T13:10:34;0.98;;;0.93;;
27804;SDS011;15183;51.350;11.102;2024-02-04T13:13:03;4.30;;;3.35;;
27804;SDS011;15183;51.350;11.102;2024-02-04T13:15:33;5.60;;;2.80;;
27804;SDS011;15183;51.350;11.102;2024-02-04T13:18:04;3.08;;;2.50;;
27804;SDS011;15183;51.350;11.102;2024-02-04T13:20:31;2.75;;;2.33;;
27804;SDS011;15183;51.350;11.102;2024-02-04T13:22:58;1.80;;;1.40;;
27804;SDS011;15183;51.350;11.102;2024-02-04T13:25:25;2.42;;;1.10;;
27804;SDS011;15183;51.350;11.102;2024-02-04T13:27:52;1.92;;;1.20;;
27804;SDS011;15183;51.350;11.102;2024-02-04T13:30:18;2.03;;;1.30;;
27804;SDS011;15183;51.350;11.102;2024-02-04T13:32:45;2.72;;;1.20;;
27804;SDS011;15183;51.350;11.102;2024-02-04T13:35:12;1.55;;;1.00;;
27804;SDS011;15183;51.350;11.102;2024-02-04T13:37:44;1.20;;;1.10;;
27804;SDS011;15183;51.350;11.102;2024-02-04T13:40:14;2.15;;;1.95;;
27804;SDS011;15183;51.350;11.102;2024-02-04T13:42:41;5.55;;;3.67;;
27804;SDS011;15183;51.350;11.102;2024-02-04T13:45:07;7.13;;;4.63;;
27804;SDS011;15183;51.350;11.102;2024-02-04T13:47:34;6.28;;;3.85;;
27804;SDS011;15183;51.350;11.102;2024-02-04T13:50:01;7.78;;;4.22;;
27804;SDS011;15183;51.350;11.102;2024-02-04T13:52:28;4.20;;;2.85;;
27804;SDS011;15183;51.350;11.102;2024-02-04T13:54:55;3.20;;;2.47;;
27804;SDS011;15183;51.350;11.102;2024-02-04T13:57:22;3.90;;;2.50;;
27804;SDS011;15183;51.350;11.102;2024-02-04T13:59:49;4.68;;;2.65;;
27804;SDS011;15183;51.350;11.102;2024-02-04T14:02:15;2.78;;;2.30;;
27804;SDS011;15183;51.350;11.102;2024-02-04T14:04:42;3.85;;;2.38;;
27804;SDS011;15183;51.350;11.102;2024-02-04T14:07:08;2.65;;;2.05;;
27804;SDS011;15183;51.350;11.102;2024-02-04T14:09:35;4.47;;;2.80;;
27804;SDS011;15183;51.350;11.102;2024-02-04T14:12:02;4.97;;;2.67;;
27804;SDS011;15183;51.350;11.102;2024-02-04T14:14:31;2.53;;;1.95;;
27804;SDS011;15183;51.350;11.102;2024-02-04T14:16:58;2.83;;;2.05;;
27804;SDS011;15183;51.350;11.102;2024-02-04T14:19:24;2.38;;;1.77;;
27804;SDS011;15183;51.350;11.102;2024-02-04T14:21:51;5.85;;;3.50;;
27804;SDS011;15183;51.350;11.102;2024-02-04T14:24:17;2.75;;;2.47;;
27804;SDS011;15183;51.350;11.102;2024-02-04T14:26:44;2.53;;;2.10;;
27804;SDS011;15183;51.350;11.102;2024-02-04T14:29:10;1.95;;;1.77;;
27804;SDS011;15183;51.350;11.102;2024-02-04T14:31:37;1.98;;;1.77;;
27804;SDS011;15183;51.350;11.102;2024-02-04T14:34:03;2.03;;;1.58;;
27804;SDS011;15183;51.350;11.102;2024-02-04T14:36:29;4.32;;;3.67;;
27804;SDS011;15183;51.350;11.102;2024-02-04T14:38:56;3.72;;;2.65;;
27804;SDS011;15183;51.350;11.102;2024-02-04T14:41:23;4.07;;;3.03;;
27804;SDS011;15183;51.350;11.102;2024-02-04T14:43:49;5.07;;;4.22;;
27804;SDS011;15183;51.350;11.102;2024-02-04T14:46:16;4.28;;;3.22;;
27804;SDS011;15183;51.350;11.102;2024-02-04T14:48:43;10.02;;;5.55;;
27804;SDS011;15183;51.350;11.102;2024-02-04T14:51:09;3.85;;;3.38;;